createdAt,value
2023-01-29T00:00:19.229Z,-1.26
2023-01-29T00:01:18.963Z,-1.26
2023-01-29T00:02:19.097Z,-1.28
2023-01-29T00:03:19.159Z,-1.28
2023-01-29T00:04:19.219Z,-1.29
2023-01-29T00:05:27.785Z,-1.32
2023-01-29T00:06:19.369Z,-1.33
2023-01-29T00:07:19.445Z,-1.35
2023-01-29T00:08:19.521Z,-1.33
2023-01-29T00:09:19.584Z,-1.33
2023-01-29T00:10:19.668Z,-1.35
2023-01-29T00:11:19.717Z,-1.35
2023-01-29T00:12:19.821Z,-1.35
2023-01-29T00:13:19.887Z,-1.32
2023-01-29T00:14:19.963Z,-1.32
2023-01-29T00:15:20.026Z,-1.32
2023-01-29T00:16:20.104Z,-1.31
2023-01-29T00:17:20.241Z,-1.32
2023-01-29T00:18:20.267Z,-1.33
2023-01-29T00:19:20.354Z,-1.35
2023-01-29T00:20:20.435Z,-1.32
2023-01-29T00:21:20.495Z,-1.32
2023-01-29T00:22:20.596Z,-1.32
2023-01-29T00:23:20.660Z,-1.33
2023-01-29T00:24:20.800Z,-1.41
2023-01-29T00:25:20.803Z,-1.39
2023-01-29T00:26:20.878Z,-1.39
2023-01-29T00:27:20.954Z,-1.43
2023-01-29T00:28:21.027Z,-1.44
2023-01-29T00:29:21.065Z,-1.43
2023-01-29T00:30:21.153Z,-1.39
2023-01-29T00:31:21.306Z,-1.38
2023-01-29T00:32:21.406Z,-1.41
2023-01-29T00:33:21.379Z,-1.41
2023-01-29T00:34:21.471Z,-1.41
2023-01-29T00:35:21.512Z,-1.44
2023-01-29T00:36:21.605Z,-1.47
2023-01-29T00:37:21.664Z,-1.49
2023-01-29T00:38:21.756Z,-1.53
2023-01-29T00:39:24.902Z,-1.54
2023-01-29T00:40:21.885Z,-1.54
2023-01-29T00:41:21.941Z,-1.53
2023-01-29T00:42:22.046Z,-1.53
2023-01-29T00:43:22.095Z,-1.53
2023-01-29T00:44:22.200Z,-1.54
2023-01-29T00:45:22.264Z,-1.54
2023-01-29T00:46:22.357Z,-1.57
2023-01-29T00:47:22.449Z,-1.57
2023-01-29T00:48:22.517Z,-1.59
2023-01-29T00:49:22.573Z,-1.61
2023-01-29T00:50:22.650Z,-1.61
2023-01-29T00:51:22.698Z,-1.64
2023-01-29T00:52:22.796Z,-1.64
2023-01-29T00:53:22.862Z,-1.67
2023-01-29T00:54:22.980Z,-1.71
2023-01-29T00:55:23.037Z,-1.71
2023-01-29T00:56:23.092Z,-1.72
2023-01-29T00:57:23.178Z,-1.75
2023-01-29T00:58:23.229Z,-1.77
2023-01-29T00:59:23.312Z,-1.77
2023-01-29T01:00:23.372Z,-1.77
2023-01-29T01:01:23.454Z,-1.77
2023-01-29T01:02:23.694Z,-1.78
2023-01-29T01:03:23.635Z,-1.80
2023-01-29T01:04:23.666Z,-1.82
2023-01-29T01:05:23.772Z,-1.82
2023-01-29T01:06:23.829Z,-1.82
2023-01-29T01:07:23.935Z,-1.82
2023-01-29T01:08:23.992Z,-1.78
2023-01-29T01:09:24.073Z,-1.77
2023-01-29T01:10:24.153Z,-1.74
2023-01-29T01:11:24.216Z,-1.74
2023-01-29T01:12:24.283Z,-1.75
2023-01-29T01:13:24.368Z,-1.75
2023-01-29T01:14:24.425Z,-1.74
2023-01-29T01:15:24.530Z,-1.75
2023-01-29T01:16:24.703Z,-1.78
2023-01-29T01:17:24.712Z,-1.80
2023-01-29T01:18:24.738Z,-1.83
2023-01-29T01:19:24.823Z,-1.88
2023-01-29T01:20:24.889Z,-1.95
2023-01-29T01:21:24.962Z,-2.00
2023-01-29T01:22:25.039Z,-2.01
2023-01-29T01:23:25.088Z,-2.01
2023-01-29T01:24:25.207Z,-1.96
2023-01-29T01:25:25.234Z,-1.93
2023-01-29T01:26:25.286Z,-1.93
2023-01-29T01:27:25.413Z,-1.95
2023-01-29T01:28:25.459Z,-1.98
2023-01-29T01:29:25.551Z,-2.00
2023-01-29T01:30:25.599Z,-2.03
2023-01-29T01:31:25.814Z,-2.07
2023-01-29T01:32:25.767Z,-2.08
2023-01-29T01:33:25.830Z,-2.10
2023-01-29T01:34:25.892Z,-2.14
2023-01-29T01:35:25.986Z,-2.16
2023-01-29T01:36:26.046Z,-2.18
2023-01-29T01:37:26.142Z,-2.18
2023-01-29T01:38:26.193Z,-2.16
2023-01-29T01:39:26.291Z,-2.13
2023-01-29T01:40:26.353Z,-2.11
2023-01-29T01:41:26.428Z,-2.08
2023-01-29T01:42:26.501Z,-2.08
2023-01-29T01:43:26.581Z,-2.10
2023-01-29T01:44:26.636Z,-2.07
2023-01-29T01:45:26.820Z,-2.03
2023-01-29T01:46:26.775Z,-2.03
2023-01-29T01:47:26.878Z,-2.00
2023-01-29T01:48:26.948Z,-2.00
2023-01-29T01:49:27.026Z,-1.98
2023-01-29T01:50:27.081Z,-1.96
2023-01-29T01:51:27.163Z,-2.00
2023-01-29T01:52:27.243Z,-2.03
2023-01-29T01:53:27.343Z,-2.03
2023-01-29T01:54:27.362Z,-2.03
2023-01-29T01:55:27.444Z,-2.06
2023-01-29T01:56:27.502Z,-2.07
2023-01-29T01:57:27.598Z,-2.08
2023-01-29T01:58:27.654Z,-2.08
2023-01-29T01:59:27.742Z,-2.10
2023-01-29T02:00:27.800Z,-2.14
2023-01-29T02:01:27.999Z,-2.14
2023-01-29T02:02:28.059Z,-2.13
2023-01-29T02:03:28.083Z,-2.14
2023-01-29T02:04:28.152Z,-2.10
2023-01-29T02:05:28.222Z,-2.11
2023-01-29T02:06:28.276Z,-2.11
2023-01-29T02:07:28.397Z,-2.14
2023-01-29T02:08:28.441Z,-2.18
2023-01-29T02:09:28.524Z,-2.21
2023-01-29T02:10:28.584Z,-2.22
2023-01-29T02:11:28.675Z,-2.28
2023-01-29T02:12:28.758Z,-2.32
2023-01-29T02:13:28.820Z,-2.32
2023-01-29T02:14:28.878Z,-2.32
2023-01-29T02:15:28.955Z,-2.32
2023-01-29T02:16:29.015Z,-2.32
2023-01-29T02:17:29.150Z,-2.26
2023-01-29T02:18:29.184Z,-2.25
2023-01-29T02:19:29.269Z,-2.25
2023-01-29T02:20:29.354Z,-2.26
2023-01-29T02:21:29.440Z,-2.24
2023-01-29T02:22:29.535Z,-2.22
2023-01-29T02:23:29.633Z,-2.24
2023-01-29T02:24:29.724Z,-2.25
2023-01-29T02:25:29.743Z,-2.26
2023-01-29T02:26:29.827Z,-2.25
2023-01-29T02:27:29.892Z,-2.28
2023-01-29T02:28:29.978Z,-2.26
2023-01-29T02:29:30.069Z,-2.25
2023-01-29T02:30:30.161Z,-2.25
2023-01-29T02:31:30.253Z,-2.26
2023-01-29T02:32:30.363Z,-2.28
2023-01-29T02:33:30.377Z,-2.28
2023-01-29T02:34:30.456Z,-2.32
2023-01-29T02:35:30.520Z,-2.33
2023-01-29T02:36:30.604Z,-2.33
2023-01-29T02:37:30.679Z,-2.38
2023-01-29T02:38:30.763Z,-2.43
2023-01-29T02:39:30.825Z,-2.43
2023-01-29T02:40:30.906Z,-2.44
2023-01-29T02:41:30.964Z,-2.46
2023-01-29T02:42:31.046Z,-2.46
2023-01-29T02:43:31.105Z,-2.47
2023-01-29T02:44:31.188Z,-2.48
2023-01-29T02:45:31.297Z,-2.46
2023-01-29T02:46:31.332Z,-2.44
2023-01-29T02:47:31.415Z,-2.44
2023-01-29T02:48:31.498Z,-2.44
2023-01-29T02:49:31.588Z,-2.46
2023-01-29T02:50:31.648Z,-2.50
2023-01-29T02:51:31.707Z,-2.53
2023-01-29T02:52:32.106Z,-2.58
2023-01-29T02:53:31.874Z,-2.64
2023-01-29T02:54:31.957Z,-2.66
2023-01-29T02:55:32.018Z,-2.66
2023-01-29T02:56:32.098Z,-2.65
2023-01-29T02:57:32.176Z,-2.65
2023-01-29T02:58:32.230Z,-2.66
2023-01-29T02:59:32.286Z,-2.65
2023-01-29T03:00:32.369Z,-2.58
2023-01-29T03:01:32.435Z,-2.53
2023-01-29T03:02:32.624Z,-2.50
2023-01-29T03:03:32.603Z,-2.50
2023-01-29T03:04:32.684Z,-2.50
2023-01-29T03:05:32.754Z,-2.48
2023-01-29T03:06:32.841Z,-2.48
2023-01-29T03:07:32.936Z,-2.50
2023-01-29T03:08:33.016Z,-2.51
2023-01-29T03:09:33.072Z,-2.51
2023-01-29T03:10:33.156Z,-2.55
2023-01-29T03:11:33.211Z,-2.58
2023-01-29T03:12:33.330Z,-2.59
2023-01-29T03:13:33.383Z,-2.62
2023-01-29T03:14:33.470Z,-2.61
2023-01-29T03:15:33.528Z,-2.59
2023-01-29T03:16:33.675Z,-2.59
2023-01-29T03:17:33.702Z,-2.61
2023-01-29T03:18:33.785Z,-2.61
2023-01-29T03:19:33.845Z,-2.62
2023-01-29T03:20:33.946Z,-2.65
2023-01-29T03:21:34.011Z,-2.64
2023-01-29T03:22:34.102Z,-2.65
2023-01-29T03:23:34.154Z,-2.65
2023-01-29T03:24:34.239Z,-2.66
2023-01-29T03:25:34.289Z,-2.66
2023-01-29T03:26:34.399Z,-2.65
2023-01-29T03:27:34.498Z,-2.62
2023-01-29T03:28:34.583Z,-2.59
2023-01-29T03:29:34.656Z,-2.61
2023-01-29T03:30:34.766Z,-2.61
2023-01-29T03:31:34.960Z,-2.61
2023-01-29T03:32:34.900Z,-2.59
2023-01-29T03:33:34.956Z,-2.58
2023-01-29T03:34:35.030Z,-2.58
2023-01-29T03:35:35.104Z,-2.59
2023-01-29T03:36:35.174Z,-2.58
2023-01-29T03:37:35.249Z,-2.59
2023-01-29T03:38:35.306Z,-2.58
2023-01-29T03:39:35.361Z,-2.58
2023-01-29T03:40:35.444Z,-2.58
2023-01-29T03:41:35.504Z,-2.62
2023-01-29T03:42:35.602Z,-2.64
2023-01-29T03:43:35.661Z,-2.68
2023-01-29T03:44:35.749Z,-2.64
2023-01-29T03:45:35.926Z,-2.61
2023-01-29T03:46:35.895Z,-2.56
2023-01-29T03:47:35.954Z,-2.55
2023-01-29T03:48:36.057Z,-2.48
2023-01-29T03:49:36.096Z,-2.47
2023-01-29T03:50:36.203Z,-2.48
2023-01-29T03:51:36.242Z,-2.46
2023-01-29T03:52:36.332Z,-2.44
2023-01-29T03:53:36.404Z,-2.44
2023-01-29T03:54:36.486Z,-2.43
2023-01-29T03:55:36.536Z,-2.40
2023-01-29T03:56:36.632Z,-2.41
2023-01-29T03:57:36.699Z,-2.40
2023-01-29T03:58:36.785Z,-2.38
2023-01-29T03:59:36.838Z,-2.41
2023-01-29T04:00:36.916Z,-2.41
2023-01-29T04:01:37.103Z,-2.41
2023-01-29T04:02:37.102Z,-2.40
2023-01-29T04:03:37.154Z,-2.43
2023-01-29T04:04:37.236Z,-2.43
2023-01-29T04:05:37.293Z,-2.43
2023-01-29T04:06:37.377Z,-2.48
2023-01-29T04:07:37.440Z,-2.47
2023-01-29T04:08:37.524Z,-2.47
2023-01-29T04:09:37.582Z,-2.46
2023-01-29T04:10:37.657Z,-2.47
2023-01-29T04:11:37.715Z,-2.48
2023-01-29T04:12:37.816Z,-2.48
2023-01-29T04:13:37.880Z,-2.51
2023-01-29T04:14:37.952Z,-2.53
2023-01-29T04:15:38.013Z,-2.55
2023-01-29T04:16:38.168Z,-2.56
2023-01-29T04:17:38.196Z,-2.53
2023-01-29T04:18:38.265Z,-2.55
2023-01-29T04:19:38.324Z,-2.58
2023-01-29T04:20:38.399Z,-2.59
2023-01-29T04:21:38.486Z,-2.58
2023-01-29T04:22:38.579Z,-2.56
2023-01-29T04:23:38.640Z,-2.58
2023-01-29T04:24:38.727Z,-2.58
2023-01-29T04:25:38.804Z,-2.58
2023-01-29T04:26:38.884Z,-2.56
2023-01-29T04:27:38.972Z,-2.53
2023-01-29T04:28:39.065Z,-2.53
2023-01-29T04:29:39.105Z,-2.51
2023-01-29T04:30:39.260Z,-2.47
2023-01-29T04:31:39.416Z,-2.47
2023-01-29T04:32:39.400Z,-2.47
2023-01-29T04:33:39.458Z,-2.47
2023-01-29T04:34:39.553Z,-2.46
2023-01-29T04:35:39.605Z,-2.46
2023-01-29T04:36:39.686Z,-2.46
2023-01-29T04:37:39.776Z,-2.44
2023-01-29T04:38:39.838Z,-2.46
2023-01-29T04:39:39.914Z,-2.47
2023-01-29T04:40:40.000Z,-2.48
2023-01-29T04:41:40.052Z,-2.48
2023-01-29T04:42:40.171Z,-2.47
2023-01-29T04:43:40.233Z,-2.43
2023-01-29T04:44:40.324Z,-2.41
2023-01-29T04:45:40.379Z,-2.41
2023-01-29T04:46:40.473Z,-2.40
2023-01-29T04:47:40.652Z,-2.38
2023-01-29T04:48:40.612Z,-2.41
2023-01-29T04:49:40.661Z,-2.40
2023-01-29T04:50:40.755Z,-2.40
2023-01-29T04:51:40.819Z,-2.40
2023-01-29T04:52:40.922Z,-2.40
2023-01-29T04:53:40.976Z,-2.37
2023-01-29T04:54:41.064Z,-2.37
2023-01-29T04:55:41.121Z,-2.33
2023-01-29T04:56:41.210Z,-2.33
2023-01-29T04:57:41.290Z,-2.35
2023-01-29T04:58:41.342Z,-2.35
2023-01-29T04:59:41.414Z,-2.37
2023-01-29T05:00:41.494Z,-2.37
2023-01-29T05:01:41.627Z,-2.37
2023-01-29T05:02:41.721Z,-2.40
2023-01-29T05:03:41.722Z,-2.43
2023-01-29T05:04:41.852Z,-2.47
2023-01-29T05:05:41.896Z,-2.50
2023-01-29T05:06:41.978Z,-2.50
2023-01-29T05:07:42.050Z,-2.51
2023-01-29T05:08:42.140Z,-2.56
2023-01-29T05:09:42.209Z,-2.58
2023-01-29T05:10:42.291Z,-2.61
2023-01-29T05:11:42.367Z,-2.62
2023-01-29T05:12:42.424Z,-2.65
2023-01-29T05:13:42.516Z,-2.65
2023-01-29T05:14:42.574Z,-2.61
2023-01-29T05:15:42.700Z,-2.59
2023-01-29T05:16:42.740Z,-2.62
2023-01-29T05:17:42.926Z,-2.61
2023-01-29T05:18:42.897Z,-2.55
2023-01-29T05:19:42.996Z,-2.50
2023-01-29T05:20:43.049Z,-2.48
2023-01-29T05:21:43.156Z,-2.46
2023-01-29T05:22:43.235Z,-2.41
2023-01-29T05:23:43.281Z,-2.40
2023-01-29T05:24:43.345Z,-2.40
2023-01-29T05:25:43.435Z,-2.38
2023-01-29T05:26:43.504Z,-2.40
2023-01-29T05:27:43.887Z,-2.46
2023-01-29T05:28:43.659Z,-2.46
2023-01-29T05:29:43.771Z,-2.46
2023-01-29T05:30:43.840Z,-2.46
2023-01-29T05:31:44.014Z,-2.47
2023-01-29T05:32:44.001Z,-2.50
2023-01-29T05:33:44.085Z,-2.51
2023-01-29T05:34:44.168Z,-2.55
2023-01-29T05:35:44.255Z,-2.56
2023-01-29T05:36:44.334Z,-2.61
2023-01-29T05:37:44.460Z,-2.61
2023-01-29T05:38:44.493Z,-2.58
2023-01-29T05:39:44.586Z,-2.61
2023-01-29T05:40:44.657Z,-2.58
2023-01-29T05:41:44.751Z,-2.58
2023-01-29T05:42:44.823Z,-2.56
2023-01-29T05:43:44.908Z,-2.55
2023-01-29T05:44:44.993Z,-2.53
2023-01-29T05:45:45.066Z,-2.56
2023-01-29T05:46:45.269Z,-2.56
2023-01-29T05:47:45.234Z,-2.62
2023-01-29T05:48:45.261Z,-2.64
2023-01-29T05:49:45.352Z,-2.66
2023-01-29T05:50:45.408Z,-2.71
2023-01-29T05:51:45.501Z,-2.71
2023-01-29T05:52:45.570Z,-2.74
2023-01-29T05:53:45.633Z,-2.76
2023-01-29T05:54:45.687Z,-2.72
2023-01-29T05:55:45.769Z,-2.76
2023-01-29T05:56:45.830Z,-2.77
2023-01-29T05:57:45.933Z,-2.74
2023-01-29T05:58:45.994Z,-2.72
2023-01-29T05:59:46.079Z,-2.72
2023-01-29T06:00:46.133Z,-2.72
2023-01-29T06:01:46.289Z,-2.74
2023-01-29T06:02:46.373Z,-2.77
2023-01-29T06:03:46.417Z,-2.82
2023-01-29T06:04:46.473Z,-2.83
2023-01-29T06:05:46.572Z,-2.86
2023-01-29T06:06:46.651Z,-2.89
2023-01-29T06:07:46.748Z,-2.87
2023-01-29T06:08:46.806Z,-2.90
2023-01-29T06:09:46.912Z,-2.90
2023-01-29T06:10:46.982Z,-2.95
2023-01-29T06:11:47.088Z,-2.97
2023-01-29T06:12:47.160Z,-2.97
2023-01-29T06:13:47.241Z,-2.95
2023-01-29T06:14:47.297Z,-2.93
2023-01-29T06:15:47.415Z,-2.89
2023-01-29T06:16:47.461Z,-2.89
2023-01-29T06:17:47.611Z,-2.90
2023-01-29T06:18:47.658Z,-2.89
2023-01-29T06:19:47.747Z,-2.89
2023-01-29T06:20:47.835Z,-2.90
2023-01-29T06:21:47.958Z,-2.94
2023-01-29T06:22:48.036Z,-2.95
2023-01-29T06:23:48.101Z,-2.95
2023-01-29T06:24:48.184Z,-2.97
2023-01-29T06:25:48.266Z,-2.98
2023-01-29T06:26:48.327Z,-2.97
2023-01-29T06:27:48.419Z,-3.00
2023-01-29T06:28:48.483Z,-3.00
2023-01-29T06:29:48.560Z,-2.95
2023-01-29T06:30:48.696Z,-2.93
2023-01-29T06:31:48.863Z,-2.93
2023-01-29T06:32:48.801Z,-2.94
2023-01-29T06:33:48.879Z,-2.98
2023-01-29T06:34:49.835Z,-3.01
2023-01-29T06:35:49.044Z,-3.04
2023-01-29T06:36:49.102Z,-3.01
2023-01-29T06:37:49.221Z,-2.98
2023-01-29T06:38:49.292Z,-2.94
2023-01-29T06:39:49.390Z,-2.93
2023-01-29T06:40:49.445Z,-2.93
2023-01-29T06:41:49.536Z,-2.93
2023-01-29T06:42:49.606Z,-2.93
2023-01-29T06:43:49.695Z,-2.95
2023-01-29T06:44:49.751Z,-2.94
2023-01-29T06:45:49.989Z,-2.93
2023-01-29T06:46:49.911Z,-2.93
2023-01-29T06:47:50.008Z,-2.94
2023-01-29T06:48:50.067Z,-2.95
2023-01-29T06:49:50.160Z,-2.97
2023-01-29T06:50:50.232Z,-2.95
2023-01-29T06:51:50.315Z,-2.97
2023-01-29T06:52:50.388Z,-2.97
2023-01-29T06:53:50.474Z,-3.00
2023-01-29T06:54:50.545Z,-3.04
2023-01-29T06:55:50.627Z,-3.08
2023-01-29T06:56:50.683Z,-3.10
2023-01-29T06:57:50.784Z,-3.13
2023-01-29T06:58:50.839Z,-3.12
2023-01-29T06:59:50.920Z,-3.12
2023-01-29T07:00:51.049Z,-3.12
2023-01-29T07:01:51.144Z,-3.08
2023-01-29T07:02:51.150Z,-3.07
2023-01-29T07:03:51.206Z,-3.10
2023-01-29T07:04:51.268Z,-3.15
2023-01-29T07:05:51.372Z,-3.21
2023-01-29T07:06:51.421Z,-3.23
2023-01-29T07:07:51.536Z,-3.28
2023-01-29T07:08:51.584Z,-3.23
2023-01-29T07:09:51.670Z,-3.21
2023-01-29T07:10:51.728Z,-3.19
2023-01-29T07:11:51.811Z,-3.21
2023-01-29T07:12:51.879Z,-3.22
2023-01-29T07:13:51.963Z,-3.21
2023-01-29T07:14:52.022Z,-3.18
2023-01-29T07:15:52.108Z,-3.13
2023-01-29T07:16:52.170Z,-3.05
2023-01-29T07:17:52.291Z,-3.00
2023-01-29T07:18:52.343Z,-2.93
2023-01-29T07:19:52.429Z,-2.90
2023-01-29T07:20:52.484Z,-2.84
2023-01-29T07:21:52.571Z,-2.79
2023-01-29T07:22:52.635Z,-2.72
2023-01-29T07:23:52.704Z,-2.69
2023-01-29T07:24:52.756Z,-2.65
2023-01-29T07:25:52.858Z,-2.64
2023-01-29T07:26:52.908Z,-2.65
2023-01-29T07:27:53.009Z,-2.66
2023-01-29T07:28:53.083Z,-2.62
2023-01-29T07:29:53.164Z,-2.59
2023-01-29T07:30:53.327Z,-2.55
2023-01-29T07:31:53.509Z,-2.48
2023-01-29T07:32:53.401Z,-2.46
2023-01-29T07:33:53.476Z,-2.41
2023-01-29T07:34:53.535Z,-2.38
2023-01-29T07:35:53.625Z,-2.35
2023-01-29T07:36:53.672Z,-2.32
2023-01-29T07:37:53.770Z,-2.26
2023-01-29T07:38:53.840Z,-2.22
2023-01-29T07:39:53.911Z,-2.19
2023-01-29T07:40:53.974Z,-2.13
2023-01-29T07:41:54.081Z,-2.07
2023-01-29T07:42:54.135Z,-2.03
2023-01-29T07:43:54.207Z,-1.95
2023-01-29T07:44:54.274Z,-1.92
2023-01-29T07:45:54.404Z,-1.86
2023-01-29T07:46:54.422Z,-1.82
2023-01-29T07:47:54.535Z,-1.78
2023-01-29T07:48:54.582Z,-1.78
2023-01-29T07:49:54.670Z,-1.77
2023-01-29T07:50:54.737Z,-1.74
2023-01-29T07:51:54.829Z,-1.74
2023-01-29T07:52:54.900Z,-1.68
2023-01-29T07:53:54.954Z,-1.64
2023-01-29T07:54:55.022Z,-1.64
2023-01-29T07:55:55.109Z,-1.67
2023-01-29T07:56:55.165Z,-1.72
2023-01-29T07:57:55.303Z,-1.70
2023-01-29T07:58:55.322Z,-1.78
2023-01-29T07:59:55.407Z,-1.80
2023-01-29T08:00:55.497Z,-1.75
2023-01-29T08:01:55.567Z,-1.71
2023-01-29T08:02:55.642Z,-1.71
2023-01-29T08:03:55.685Z,-1.65
2023-01-29T08:04:55.782Z,-1.59
2023-01-29T08:05:55.856Z,-1.49
2023-01-29T08:06:55.955Z,-1.44
2023-01-29T08:08:06.216Z,-1.49
2023-01-29T08:08:56.130Z,-1.53
2023-01-29T08:09:56.233Z,-1.51
2023-01-29T08:10:56.313Z,-1.49
2023-01-29T08:11:56.422Z,-1.62
2023-01-29T08:12:56.488Z,-1.72
2023-01-29T08:13:56.533Z,-1.68
2023-01-29T08:14:56.593Z,-1.65
2023-01-29T08:15:56.673Z,-1.64
2023-01-29T08:16:56.740Z,-1.53
2023-01-29T08:24:03.813Z,-1.62
2023-01-29T08:24:08.713Z,-1.72
2023-01-29T08:25:08.898Z,-1.67
2023-01-29T08:26:08.862Z,-1.56
2023-01-29T08:27:08.903Z,-1.44
2023-01-29T08:28:08.998Z,-1.38
2023-01-29T08:29:09.076Z,-1.31
2023-01-29T08:30:09.155Z,-1.26
2023-01-29T08:31:09.258Z,-1.20
2023-01-29T08:32:09.295Z,-1.14
2023-01-29T08:33:09.350Z,-1.13
2023-01-29T08:34:09.457Z,-1.10
2023-01-29T08:35:09.497Z,-1.10
2023-01-29T08:36:09.575Z,-1.07
2023-01-29T08:37:09.643Z,-1.02
2023-01-29T08:38:09.743Z,-0.99
2023-01-29T08:39:09.796Z,-0.97
2023-01-29T08:40:09.881Z,-0.97
2023-01-29T08:41:09.932Z,-0.96
2023-01-29T08:42:10.011Z,-0.95
2023-01-29T08:43:10.086Z,-0.93
2023-01-29T08:44:10.188Z,-0.90
2023-01-29T08:45:10.239Z,-0.89
2023-01-29T08:46:10.371Z,-0.93
2023-01-29T08:47:10.391Z,-1.07
2023-01-29T08:48:10.476Z,-1.07
2023-01-29T08:49:10.542Z,-1.05
2023-01-29T08:50:10.615Z,-1.02
2023-01-29T08:51:10.673Z,-1.03
2023-01-29T08:52:10.762Z,-1.02
2023-01-29T08:53:10.819Z,-1.02
2023-01-29T08:54:10.931Z,-1.00
2023-01-29T08:55:10.985Z,-1.17
2023-01-29T08:56:11.051Z,-1.29
2023-01-29T08:57:11.124Z,-1.26
2023-01-29T08:58:11.216Z,-1.28
2023-01-29T08:59:11.295Z,-1.23
2023-01-29T09:00:11.365Z,-1.15
2023-01-29T09:01:11.501Z,-1.07
2023-01-29T09:02:11.566Z,-1.03
2023-01-29T09:03:11.563Z,-0.97
2023-01-29T09:04:11.679Z,-0.99
2023-01-29T09:05:11.719Z,-1.07
2023-01-29T09:06:11.807Z,-1.08
2023-01-29T09:07:11.857Z,-1.02
2023-01-29T09:08:11.943Z,-1.05
2023-01-29T09:09:12.013Z,-1.10
2023-01-29T09:10:12.073Z,-1.21
2023-01-29T09:11:12.139Z,-1.29
2023-01-29T09:12:12.238Z,-1.23
2023-01-29T09:13:12.295Z,-1.15
2023-01-29T09:14:12.433Z,-1.07
2023-01-29T09:15:12.435Z,-0.95
2023-01-29T09:16:12.519Z,-0.90
2023-01-29T09:17:12.577Z,-0.85
2023-01-29T09:18:12.664Z,-0.78
2023-01-29T09:19:12.749Z,-0.71
2023-01-29T09:20:12.808Z,-0.74
2023-01-29T09:21:12.872Z,-0.85
2023-01-29T09:22:12.961Z,-0.93
2023-01-29T09:23:13.020Z,-0.86
2023-01-29T09:24:13.128Z,-0.74
2023-01-29T09:25:13.185Z,-0.77
2023-01-29T09:26:13.329Z,-0.71
2023-01-29T09:27:13.329Z,-0.80
2023-01-29T09:28:13.394Z,-0.85
2023-01-29T09:29:13.465Z,-0.77
2023-01-29T09:30:13.546Z,-0.62
2023-01-29T09:31:13.756Z,-0.55
2023-01-29T09:32:14.621Z,-0.50
2023-01-29T09:33:13.781Z,-0.55
2023-01-29T09:34:13.850Z,-0.49
2023-01-29T09:35:14.205Z,-0.39
2023-01-29T09:36:13.995Z,-0.32
2023-01-29T09:37:14.078Z,-0.24
2023-01-29T09:38:14.134Z,-0.23
2023-01-29T09:39:14.230Z,-0.38
2023-01-29T09:40:14.292Z,-0.39
2023-01-29T09:41:14.372Z,-0.49
2023-01-29T09:42:14.414Z,-0.53
2023-01-29T09:43:14.513Z,-0.65
2023-01-29T09:44:14.577Z,-0.70
2023-01-29T09:45:14.934Z,-0.67
2023-01-29T09:46:14.769Z,-0.65
2023-01-29T09:47:14.791Z,-0.62
2023-01-29T09:48:14.866Z,-0.62
2023-01-29T09:49:14.949Z,-0.52
2023-01-29T09:50:15.003Z,-0.41
2023-01-29T09:51:15.091Z,-0.34
2023-01-29T09:52:15.154Z,-0.20
2023-01-29T09:53:15.229Z,-0.08
2023-01-29T09:54:15.341Z,0.04
2023-01-29T09:55:15.732Z,0.07
2023-01-29T09:56:15.473Z,0.15
2023-01-29T09:57:15.558Z,0.17
2023-01-29T09:58:15.646Z,0.15
2023-01-29T09:59:15.729Z,0.10
2023-01-29T10:00:15.794Z,0.07
2023-01-29T10:01:16.012Z,-0.01
2023-01-29T10:02:16.066Z,0.01
2023-01-29T10:03:16.012Z,-0.02
2023-01-29T10:04:16.095Z,0.02
2023-01-29T10:05:16.450Z,0.04
2023-01-29T10:06:16.223Z,0.04
2023-01-29T10:07:16.320Z,0.04
2023-01-29T10:08:16.385Z,0.01
2023-01-29T10:09:16.471Z,0.12
2023-01-29T10:10:16.511Z,0.22
2023-01-29T10:11:16.602Z,0.33
2023-01-29T10:12:16.680Z,0.44
2023-01-29T10:13:16.769Z,0.60
2023-01-29T10:14:16.861Z,0.74
2023-01-29T10:15:17.142Z,0.67
2023-01-29T10:16:16.996Z,0.60
2023-01-29T10:17:17.174Z,0.59
2023-01-29T10:18:17.169Z,0.44
2023-01-29T10:19:17.273Z,0.45
2023-01-29T10:20:17.328Z,0.51
2023-01-29T10:21:17.407Z,0.60
2023-01-29T10:22:17.495Z,0.68
2023-01-29T10:23:17.573Z,0.67
2023-01-29T10:24:17.697Z,0.63
2023-01-29T10:25:18.264Z,0.75
2023-01-29T10:26:17.897Z,0.95
2023-01-29T10:27:17.883Z,0.98
2023-01-29T10:28:17.984Z,0.99
2023-01-29T10:29:18.085Z,1.13
2023-01-29T10:30:18.151Z,1.21
2023-01-29T10:31:18.363Z,1.24
2023-01-29T10:32:18.334Z,1.02
2023-01-29T10:33:18.412Z,0.89
2023-01-29T10:34:18.527Z,0.88
2023-01-29T10:35:18.756Z,0.95
2023-01-29T10:36:18.682Z,1.08
2023-01-29T10:37:18.779Z,1.17
2023-01-29T10:38:18.860Z,1.20
2023-01-29T10:39:18.965Z,1.29
2023-01-29T10:40:19.041Z,1.34
2023-01-29T10:41:19.092Z,1.24
2023-01-29T10:42:19.196Z,1.25
2023-01-29T10:43:19.255Z,1.24
2023-01-29T10:44:19.371Z,1.14
2023-01-29T10:45:19.992Z,1.20
2023-01-29T10:46:19.554Z,1.16
2023-01-29T10:47:19.644Z,1.16
2023-01-29T10:48:19.703Z,1.24
2023-01-29T10:49:19.788Z,1.36
2023-01-29T10:50:19.880Z,1.50
2023-01-29T10:51:19.919Z,1.64
2023-01-29T10:52:20.022Z,1.72
2023-01-29T10:53:20.085Z,1.82
2023-01-29T10:54:20.190Z,1.89
2023-01-29T10:55:20.242Z,2.04
2023-01-29T10:56:23.230Z,2.12
2023-01-29T10:57:20.417Z,2.29
2023-01-29T10:58:20.494Z,2.40
2023-01-29T10:59:20.577Z,2.51
2023-01-29T11:00:20.645Z,2.59
2023-01-29T11:01:20.784Z,2.59
2023-01-29T11:02:20.842Z,2.63
2023-01-29T11:03:27.951Z,2.53
2023-01-29T11:04:20.990Z,2.37
2023-01-29T11:05:21.034Z,2.26
2023-01-29T11:06:21.125Z,2.33
2023-01-29T11:07:21.213Z,2.36
2023-01-29T11:08:21.310Z,2.38
2023-01-29T11:09:21.382Z,2.41
2023-01-29T11:10:21.462Z,2.58
2023-01-29T11:11:21.536Z,2.58
2023-01-29T11:12:22.741Z,2.36
2023-01-29T11:13:21.716Z,2.30
2023-01-29T11:14:21.830Z,2.32
2023-01-29T11:15:21.883Z,2.29
2023-01-29T11:16:21.980Z,2.29
2023-01-29T11:17:22.067Z,2.36
2023-01-29T11:18:22.119Z,2.22
2023-01-29T11:19:22.230Z,2.23
2023-01-29T11:20:22.280Z,2.29
2023-01-29T11:21:22.359Z,2.41
2023-01-29T11:22:22.429Z,2.53
2023-01-29T11:23:22.512Z,2.61
2023-01-29T11:24:22.610Z,2.37
2023-01-29T11:25:22.645Z,2.20
2023-01-29T11:26:22.729Z,2.12
2023-01-29T11:27:22.787Z,2.20
2023-01-29T11:28:22.876Z,2.32
2023-01-29T11:29:22.969Z,2.41
2023-01-29T11:30:23.037Z,2.53
2023-01-29T11:31:23.272Z,2.65
2023-01-29T11:32:23.188Z,2.69
2023-01-29T11:33:23.270Z,2.79
2023-01-29T11:34:23.361Z,2.80
2023-01-29T11:35:23.409Z,2.86
2023-01-29T11:36:23.480Z,2.84
2023-01-29T11:37:23.562Z,2.81
2023-01-29T11:38:23.635Z,2.83
2023-01-29T11:39:23.739Z,2.84
2023-01-29T11:40:23.787Z,2.89
2023-01-29T11:41:23.869Z,2.87
2023-01-29T11:42:23.939Z,2.83
2023-01-29T11:43:24.056Z,2.71
2023-01-29T11:44:24.131Z,2.56
2023-01-29T11:45:24.172Z,2.25
2023-01-29T11:46:24.294Z,2.08
2023-01-29T11:47:24.308Z,1.86
2023-01-29T11:48:24.388Z,1.90
2023-01-29T11:49:24.491Z,2.02
2023-01-29T11:50:24.558Z,2.14
2023-01-29T11:51:24.644Z,2.27
2023-01-29T11:52:24.707Z,2.20
2023-01-29T11:53:24.786Z,2.25
2023-01-29T11:54:24.889Z,2.29
2023-01-29T11:55:24.932Z,2.26
2023-01-29T11:56:25.008Z,2.29
2023-01-29T11:57:25.065Z,2.29
2023-01-29T11:58:25.139Z,2.14
2023-01-29T11:59:25.381Z,2.07
2023-01-29T12:00:25.304Z,2.08
2023-01-29T12:01:25.377Z,2.15
2023-01-29T12:02:25.452Z,2.20
2023-01-29T12:03:25.597Z,2.20
2023-01-29T12:04:25.663Z,2.12
2023-01-29T12:05:25.697Z,2.04
2023-01-29T12:06:25.776Z,2.05
2023-01-29T12:07:25.858Z,2.01
2023-01-29T12:08:25.931Z,2.01
2023-01-29T12:09:26.070Z,1.98
2023-01-29T12:10:26.100Z,1.92
2023-01-29T12:11:26.179Z,1.89
2023-01-29T12:12:26.286Z,1.92
2023-01-29T12:13:26.364Z,2.01
2023-01-29T12:14:26.463Z,2.14
2023-01-29T12:15:26.504Z,2.14
2023-01-29T12:16:26.614Z,2.02
2023-01-29T12:17:26.646Z,1.98
2023-01-29T12:18:26.719Z,2.05
2023-01-29T12:19:26.814Z,2.15
2023-01-29T12:20:26.883Z,2.14
2023-01-29T12:21:26.945Z,2.18
2023-01-29T12:22:27.040Z,2.25
2023-01-29T12:23:27.119Z,2.29
2023-01-29T12:24:27.229Z,2.30
2023-01-29T12:25:27.268Z,2.32
2023-01-29T12:26:27.381Z,2.44
2023-01-29T12:27:27.428Z,2.50
2023-01-29T12:28:27.520Z,2.59
2023-01-29T12:29:27.616Z,2.71
2023-01-29T12:30:27.747Z,2.83
2023-01-29T12:31:27.892Z,2.95
2023-01-29T12:32:27.867Z,2.80
2023-01-29T12:33:27.959Z,2.81
2023-01-29T12:34:28.061Z,2.95
2023-01-29T12:35:28.099Z,3.10
2023-01-29T12:36:28.170Z,3.25
2023-01-29T12:37:28.250Z,3.30
2023-01-29T12:38:28.329Z,3.33
2023-01-29T12:39:28.422Z,3.31
2023-01-29T12:40:28.508Z,3.20
2023-01-29T12:41:28.604Z,3.23
2023-01-29T12:42:28.664Z,3.26
2023-01-29T12:43:28.731Z,3.42
2023-01-29T12:44:28.821Z,3.49
2023-01-29T12:45:28.867Z,3.56
2023-01-29T12:46:28.990Z,3.50
2023-01-29T12:47:29.003Z,3.42
2023-01-29T12:48:29.076Z,3.22
2023-01-29T12:49:29.171Z,3.26
2023-01-29T12:50:29.243Z,3.16
2023-01-29T12:51:29.325Z,3.08
2023-01-29T12:52:29.394Z,3.20
2023-01-29T12:53:29.483Z,3.20
2023-01-29T12:54:29.576Z,3.30
2023-01-29T12:55:29.616Z,3.23
2023-01-29T12:56:29.717Z,3.20
2023-01-29T12:57:29.800Z,2.98
2023-01-29T12:58:29.880Z,2.97
2023-01-29T12:59:29.977Z,3.01
2023-01-29T13:00:30.049Z,3.08
2023-01-29T13:01:30.113Z,3.05
2023-01-29T13:02:30.230Z,3.07
2023-01-29T13:03:30.328Z,2.87
2023-01-29T13:04:30.394Z,2.76